Time;durP1;ratioP1;P1;durP2;ratioP2;P2;SDS_P1;SDS_P2;PMS_P1;PMS_P2;Temp;Humidity;BMP_temperature;BMP_pressure;BME280_temperature;BME280_humidity;BME280_pressure;Samples;Min_cycle;Max_cycle;Signal;HPM_P1;HPM_P2
2022/06/05 00:04:36;;;;;;;0.32;0.32;;;20.00;99.90;;;18.73;91.70;100201.28;10505654;27;99049;-81
2022/06/05 00:10:24;;;;;;;0.60;0.45;;;19.90;99.90;;;18.64;92.00;100216.00;10521380;27;97478;-82
2022/06/05 00:15:27;;;;;;;0.45;0.40;;;19.90;99.90;;;18.58;92.15;100211.50;10494082;27;96635;-82
2022/06/05 00:20:31;;;;;;;1.65;1.15;;;19.80;99.90;;;18.53;92.11;100214.03;10545683;27;96512;-82
2022/06/05 00:26:09;;;;;;;0.73;0.40;;;19.70;99.90;;;18.44;92.18;100203.53;10546134;27;96632;-82
2022/06/05 00:31:31;;;;;;;1.05;0.90;;;19.60;99.90;;;18.37;92.51;100201.97;10531795;27;97143;-82
2022/06/05 00:36:59;;;;;;;1.48;0.70;;;19.60;99.90;;;18.35;92.79;100199.50;10544063;27;98104;-82
2022/06/05 00:42:20;;;;;;;0.68;0.32;;;19.60;99.90;;;18.29;92.78;100196.81;10505450;27;96529;-82
2022/06/05 00:47:27;;;;;;;;;;;19.50;99.90;;;18.22;93.23;100196.06;10513606;27;96701;-81
2022/06/05 00:52:34;;;;;;;0.75;0.70;;;19.40;99.90;;;18.16;93.78;100184.28;10509453;27;98074;-81
2022/06/05 00:57:39;;;;;;;1.00;0.57;;;19.30;99.90;;;18.16;94.18;100181.59;10528286;27;97739;-81
2022/06/05 01:02:45;;;;;;;0.63;0.57;;;19.30;99.90;;;18.14;94.49;100189.91;10519325;27;97190;-82
2022/06/05 01:07:49;;;;;;;1.90;1.05;;;19.30;99.90;;;18.15;94.42;100182.66;10506395;27;96641;-82
2022/06/05 01:13:24;;;;;;;1.88;0.63;;;19.30;99.90;;;18.14;94.48;100178.31;10527974;27;96668;-82
2022/06/05 01:18:42;;;;;;;0.63;0.50;;;19.30;99.90;;;18.11;94.74;100181.44;10524332;27;96747;-82
2022/06/05 01:24:09;;;;;;;1.20;0.80;;;19.30;99.90;;;18.09;95.03;100181.66;10550187;27;96875;-82
2022/06/05 01:29:29;;;;;;;1.02;0.68;;;19.30;99.90;;;18.08;95.10;100176.50;10552090;27;96550;-82
2022/06/05 01:34:51;;;;;;;0.70;0.70;;;19.30;99.90;;;18.07;95.13;100169.47;10528595;27;97386;-82
2022/06/05 01:40:17;;;;;;;0.50;0.32;;;19.30;99.90;;;18.08;95.30;100171.13;10531734;27;96525;-82
2022/06/05 01:45:33;;;;;;;1.10;0.70;;;19.20;99.90;;;18.09;95.47;100168.22;10532107;27;98674;-82
2022/06/05 01:50:59;;;;;;;0.75;0.52;;;19.20;99.90;;;18.11;95.76;100176.06;10533611;27;96740;-82
2022/06/05 01:56:17;;;;;;;0.50;0.47;;;19.30;99.90;;;18.13;96.01;100179.38;10496777;27;96690;-82
2022/06/05 02:01:30;;;;;;;1.02;0.93;;;19.30;99.90;;;18.16;96.13;100163.59;10500977;27;96609;-82
2022/06/05 02:06:46;;;;;;;1.27;0.70;;;19.40;99.90;;;18.17;96.26;100181.41;10508195;27;96685;-82
2022/06/05 02:11:49;;;;;;;3.33;1.10;;;19.40;99.90;;;18.16;96.41;100179.75;10534079;27;96534;-82
2022/06/05 02:16:53;;;;;;;1.20;0.80;;;19.40;99.90;;;18.17;96.42;100169.81;10491578;27;97458;-82
2022/06/05 02:22:04;;;;;;;0.50;0.50;;;19.40;99.90;;;18.20;96.64;100169.38;10489400;27;96524;-82
2022/06/05 02:27:07;;;;;;;0.75;0.57;;;19.40;99.90;;;18.24;96.60;100167.09;10471272;27;96554;-82
2022/06/05 02:32:32;;;;;;;1.00;0.60;;;19.40;99.90;;;18.26;96.99;100178.44;10506130;27;98427;-82
2022/06/05 02:38:27;;;;;;;0.90;0.50;;;19.50;99.90;;;18.28;97.06;100179.88;10507588;27;96624;-83
2022/06/05 02:44:32;;;;;;;0.40;0.40;;;19.50;99.90;;;18.31;97.00;100182.13;10486810;27;96579;-83
2022/06/05 02:49:42;;;;;;;1.40;0.70;;;19.50;99.90;;;18.34;97.12;100191.63;10504482;27;96770;-82
2022/06/05 02:55:08;;;;;;;1.03;0.77;;;19.50;99.90;;;18.34;97.13;100186.25;10497529;27;96703;-82
2022/06/05 03:00:21;;;;;;;2.53;1.25;;;19.50;99.90;;;18.30;97.39;100185.88;10471002;27;96866;-81
2022/06/05 03:05:25;;;;;;;2.08;1.10;;;19.50;99.90;;;18.29;96.94;100200.38;10506164;27;96525;-81
2022/06/05 03:10:28;;;;;;;0.90;0.70;;;19.50;99.90;;;18.28;97.29;100200.56;10482926;27;98467;-81
2022/06/05 03:15:31;;;;;;;1.50;0.63;;;19.50;99.90;;;18.24;96.85;100197.50;10489913;27;97504;-81
2022/06/05 03:20:34;;;;;;;1.00;0.82;;;19.40;99.90;;;18.23;97.20;100203.91;10500167;27;96560;-81
2022/06/05 03:25:40;;;;;;;1.35;0.85;;;19.40;99.90;;;18.22;97.10;100210.31;10500179;27;96988;-81
2022/06/05 03:30:44;;;;;;;1.60;0.90;;;19.40;99.90;;;18.22;97.51;100218.38;10502983;27;96674;-81
2022/06/05 03:35:47;;;;;;;2.13;1.13;;;19.40;99.90;;;18.25;97.87;100225.22;10505692;27;96626;-81
2022/06/05 03:40:50;;;;;;;1.15;0.45;;;19.40;99.90;;;18.29;97.71;100229.09;10502816;27;96898;-82
2022/06/05 03:46:08;;;;;;;0.77;0.68;;;19.50;99.90;;;18.34;97.80;100242.72;10503972;27;97688;-82
2022/06/05 03:51:22;;;;;;;0.93;0.88;;;19.50;99.90;;;18.38;98.00;100242.09;10494696;27;99072;-81
2022/06/05 03:56:28;;;;;;;2.42;1.48;;;19.60;99.90;;;18.41;98.08;100241.66;10491762;27;96492;-81
2022/06/05 04:01:31;;;;;;;1.55;1.02;;;19.60;99.90;;;18.42;97.75;100253.25;10473599;27;96516;-81
2022/06/05 04:06:34;;;;;;;2.53;1.48;;;19.70;99.90;;;18.44;98.19;100261.91;10504340;27;96869;-81
2022/06/05 04:11:38;;;;;;;2.78;1.65;;;19.70;99.90;;;18.45;98.27;100263.56;10492441;27;96497;-81
2022/06/05 04:16:42;;;;;;;2.08;1.52;;;19.70;99.90;;;18.51;98.34;100267.25;10488257;27;96878;-81
2022/06/05 04:21:47;;;;;;;2.03;1.05;;;19.80;99.90;;;18.55;98.57;100274.66;10499932;27;96638;-81
2022/06/05 04:26:50;;;;;;;2.33;1.35;;;19.80;99.90;;;18.59;98.72;100275.91;10504480;27;96630;-81
2022/06/05 04:31:53;;;;;;;1.77;1.60;;;19.80;99.90;;;18.59;98.54;100280.44;10484908;27;99700;-82
2022/06/05 04:36:56;;;;;;;2.92;1.92;;;19.80;99.90;;;18.60;98.96;100288.31;10482358;27;96495;-81
2022/06/05 04:41:59;;;;;;;4.35;1.92;;;19.90;99.90;;;18.62;98.91;100288.91;10499005;27;96997;-81
2022/06/05 04:47:03;;;;;;;3.03;1.77;;;19.90;99.90;;;18.59;98.63;100294.72;10501498;27;96637;-81
2022/06/05 04:52:06;;;;;;;5.78;2.47;;;19.90;99.90;;;18.56;99.37;100305.91;10502425;27;96934;-81
2022/06/05 04:57:09;;;;;;;6.95;2.92;;;19.90;99.90;;;18.58;99.64;100313.75;10503120;27;96462;-81
2022/06/05 05:02:12;;;;;;;3.20;2.58;;;19.90;99.90;;;18.61;99.69;100324.94;10506658;27;96661;-81
2022/06/05 05:07:16;;;;;;;2.70;1.60;;;19.90;99.90;;;18.66;99.69;100326.97;10476680;27;96620;-81
2022/06/05 05:12:22;;;;;;;4.07;1.80;;;20.00;99.90;;;18.69;99.85;100324.69;10510935;27;96583;-81
2022/06/05 05:17:25;;;;;;;3.40;1.58;;;20.00;99.90;;;18.76;99.85;100330.03;10549493;27;96633;-81
2022/06/05 05:22:28;;;;;;;3.17;2.20;;;20.00;99.90;;;18.84;99.94;100328.97;10544351;27;98421;-81
2022/06/05 05:27:33;;;;;;;6.07;2.22;;;20.10;99.90;;;18.90;99.97;100336.97;10526580;27;97775;-81
2022/06/05 05:32:36;;;;;;;3.70;1.90;;;20.20;99.90;;;18.95;99.67;100339.84;10550292;27;96633;-81
2022/06/05 05:37:39;;;;;;;4.35;2.53;;;20.20;99.90;;;18.99;99.36;100332.13;10525716;27;96498;-81
2022/06/05 05:42:42;;;;;;;2.97;1.65;;;20.30;99.90;;;19.11;99.56;100351.09;10535806;27;96552;-81
2022/06/05 05:47:45;;;;;;;3.88;1.58;;;20.40;99.90;;;19.21;99.82;100343.34;10525838;27;96687;-81
2022/06/05 05:52:48;;;;;;;2.97;2.33;;;20.40;99.90;;;19.28;99.30;100333.34;10544863;27;97593;-82
2022/06/05 05:57:52;;;;;;;4.93;1.95;;;20.50;99.90;;;19.36;98.98;100335.72;10534482;27;96504;-81
2022/06/05 06:02:55;;;;;;;3.47;1.70;;;20.60;99.90;;;19.40;98.37;100331.56;10549008;27;97243;-81
2022/06/05 06:07:58;;;;;;;2.35;1.35;;;20.60;99.90;;;19.41;98.21;100310.81;10531584;27;98704;-81
2022/06/05 06:13:00;;;;;;;2.35;1.17;;;20.70;99.90;;;19.47;97.97;100321.53;10510189;27;97237;-81
2022/06/05 06:18:04;;;;;;;3.03;1.48;;;20.70;99.90;;;19.49;97.46;100324.00;10545529;27;98873;-82
2022/06/05 06:23:07;;;;;;;3.55;2.08;;;20.80;99.90;;;19.55;97.39;100333.88;10550589;27;96582;-80
2022/06/05 06:28:10;;;;;;;3.78;2.28;;;20.80;99.90;;;19.67;97.54;100323.22;10528695;27;96455;-80
2022/06/05 06:33:14;;;;;;;5.32;1.75;;;20.90;99.90;;;19.81;97.15;100319.34;10538019;27;97064;-81
2022/06/05 06:38:17;;;;;;;2.05;1.10;;;21.10;99.90;;;19.93;95.33;100325.63;10531272;27;96492;-80
2022/06/05 06:43:20;;;;;;;2.25;1.35;;;21.10;99.90;;;20.01;92.72;100321.78;10538424;27;96700;-81
2022/06/05 06:48:23;;;;;;;2.33;1.40;;;21.20;99.90;;;20.11;90.32;100311.28;10544656;27;96833;-81
2022/06/05 06:53:29;;;;;;;3.15;1.17;;;21.30;99.90;;;20.24;88.12;100315.69;10551374;27;96515;-81
2022/06/05 06:58:32;;;;;;;2.95;1.40;;;21.40;99.90;;;20.30;86.35;100301.28;10551058;27;96608;-83
2022/06/05 07:03:35;;;;;;;2.03;1.30;;;21.50;99.90;;;20.40;85.47;100304.25;10539561;27;97038;-79
2022/06/05 07:08:39;;;;;;;2.63;1.10;;;21.60;99.90;;;20.60;83.45;100303.97;10524164;27;97408;-79
2022/06/05 07:13:42;;;;;;;2.28;1.27;;;21.70;99.90;;;20.73;81.19;100297.56;10527853;27;97459;-78
2022/06/05 07:18:46;;;;;;;2.08;1.05;;;21.80;99.90;;;20.87;80.37;100293.59;10525573;27;96656;-79
2022/06/05 07:23:49;;;;;;;2.33;1.10;;;22.00;99.90;;;20.94;79.09;100288.91;10532221;27;97131;-79
2022/06/05 07:28:54;;;;;;;1.48;0.73;;;22.10;99.90;;;21.00;77.72;100298.78;10529959;27;96610;-78
2022/06/05 07:33:59;;;;;;;1.95;1.45;;;22.10;99.90;;;20.99;77.15;100289.03;10529323;27;96516;-79
2022/06/05 07:39:03;;;;;;;1.65;1.10;;;22.20;99.90;;;20.99;76.27;100296.28;10537932;27;96567;-79
2022/06/05 07:44:07;;;;;;;2.25;1.42;;;22.20;99.90;;;21.00;75.78;100300.66;10549633;27;96488;-79
2022/06/05 07:49:10;;;;;;;2.20;1.00;;;22.20;99.90;;;21.04;75.86;100309.91;10527309;27;97398;-79
2022/06/05 07:54:27;;;;;;;1.60;0.95;;;22.20;99.90;;;21.03;74.77;100311.81;10515007;27;96732;-79
2022/06/05 07:59:37;;;;;;;0.95;0.80;;;22.20;99.90;;;21.08;75.14;100322.72;10544143;27;96607;-79
2022/06/05 08:04:42;;;;;;;0.93;0.60;;;22.30;99.90;;;21.25;75.58;100317.47;10543434;27;98478;-79
2022/06/05 08:09:45;;;;;;;1.17;0.73;;;22.40;99.90;;;21.38;74.30;100333.47;10543492;27;97346;-79
2022/06/05 08:14:50;;;;;;;1.23;1.10;;;22.50;99.90;;;21.51;74.18;100324.28;10534372;27;96803;-79
2022/06/05 08:19:54;;;;;;;1.25;1.15;;;22.60;99.90;;;21.55;72.99;100309.25;10503688;27;99950;-79
2022/06/05 08:24:57;;;;;;;1.92;1.35;;;22.70;99.90;;;21.68;73.81;100310.88;10533359;27;96872;-79
2022/06/05 08:30:00;;;;;;;1.35;1.05;;;22.80;99.90;;;21.80;72.81;100308.13;10545297;27;96545;-79
2022/06/05 08:35:04;;;;;;;1.73;1.27;;;22.90;99.90;;;21.86;72.29;100318.00;10539307;27;98291;-78
2022/06/05 08:45:52;;;;;;;4.13;1.15;;;23.00;99.90;;;21.92;70.72;100317.03;10523703;27;97341;-78
2022/06/05 08:51:33;;;;;;;0.63;0.57;;;23.10;99.90;;;21.99;71.26;100325.03;10522583;27;98346;-79
2022/06/05 08:56:49;;;;;;;0.85;0.57;;;23.20;99.90;;;22.07;70.47;100309.25;10528761;27;96800;-81
2022/06/05 09:02:12;;;;;;;1.15;0.60;;;23.20;99.90;;;22.23;70.36;100309.56;10524836;27;97053;-78
2022/06/05 09:07:50;;;;;;;1.73;1.17;;;23.40;99.90;;;22.33;69.56;100301.63;10511276;27;96683;-78
2022/06/05 09:13:48;;;;;;;1.85;1.50;;;23.50;99.90;;;22.56;69.20;100306.94;10525653;27;97833;-79
2022/06/05 09:18:54;;;;;;;1.15;0.77;;;23.70;99.90;;;22.84;67.72;100291.66;10531914;27;98467;-78
2022/06/05 09:24:15;;;;;;;1.65;1.13;;;23.90;99.90;;;22.94;67.30;100295.41;10537232;27;96935;-78
2022/06/05 09:29:43;;;;;;;1.70;1.42;;;24.10;99.90;;;23.02;67.70;100296.03;10495766;27;96655;-78
2022/06/05 09:34:56;;;;;;;0.95;0.88;;;24.10;99.90;;;22.91;65.94;100304.03;10534321;27;96641;-78
2022/06/05 09:40:26;;;;;;;1.75;1.38;;;24.10;99.90;;;22.94;67.44;100308.13;10517378;27;97940;-78
2022/06/05 09:46:16;;;;;;;1.30;1.03;;;24.10;99.90;;;22.93;66.34;100315.44;10511154;27;98846;-79
2022/06/05 09:51:20;;;;;;;1.15;1.02;;;24.10;99.90;;;22.95;67.17;100320.59;10542200;27;98223;-78
2022/06/05 10:02:09;;;;;;;1.60;1.33;;;24.20;99.90;;;22.85;65.80;100339.38;10524326;27;96999;-78
2022/06/05 10:07:34;;;;;;;2.05;0.98;;;24.00;99.90;;;22.81;65.65;100332.81;10538626;27;97472;-78
2022/06/05 10:12:50;;;;;;;1.20;0.90;;;24.00;99.90;;;22.74;64.58;100337.56;10527245;27;97072;-78
2022/06/05 10:18:04;;;;;;;2.47;1.05;;;23.90;99.90;;;22.73;64.87;100339.47;10481280;27;98569;-78
2022/06/05 10:23:27;;;;;;;2.95;1.08;;;23.90;99.90;;;22.76;63.96;100333.53;10466920;27;96586;-78
2022/06/05 10:28:35;;;;;;;1.60;1.10;;;23.90;99.90;;;22.85;62.75;100328.53;10469771;27;96742;-79
2022/06/05 10:34:17;;;;;;;1.15;0.80;;;24.00;99.90;;;23.17;62.22;100320.69;10479856;27;98039;-79
2022/06/05 10:39:38;;;;;;;1.35;0.90;;;24.20;99.90;;;23.66;62.43;100312.72;10493992;27;98840;-79
2022/06/05 10:45:09;;;;;;;1.38;0.90;;;24.70;99.90;;;23.92;58.10;100309.25;10461547;27;96398;-78
2022/06/05 10:50:32;;;;;;;0.60;0.60;;;25.00;98.20;;;24.02;58.33;100303.13;10476916;27;96571;-79
2022/06/05 10:56:15;;;;;;;1.17;0.70;;;25.10;97.70;;;24.12;57.61;100303.25;10468544;27;96663;-79
2022/06/05 11:01:36;;;;;;;0.98;0.68;;;25.20;97.00;;;24.28;57.77;100291.47;10476295;27;98252;-79
2022/06/05 11:07:16;;;;;;;1.05;0.82;;;25.40;96.50;;;24.42;52.08;100285.69;10464155;27;96705;-79
2022/06/05 11:18:33;;;;;;;1.25;0.93;;;25.60;90.30;;;24.56;50.51;100278.75;10483823;27;96878;-80
2022/06/05 11:23:41;;;;;;;0.90;0.60;;;25.70;87.30;;;24.64;49.30;100269.28;10475433;27;96585;-79
2022/06/05 11:29:32;;;;;;;1.53;0.87;;;25.80;84.00;;;24.72;49.90;100268.84;10440888;27;96802;-78
2022/06/05 11:35:06;;;;;;;1.23;0.70;;;25.90;83.10;;;24.96;49.89;100259.22;10461228;27;96807;-79
2022/06/05 11:40:43;;;;;;;1.23;0.88;;;26.00;83.00;;;25.18;47.68;100242.78;10440322;27;96670;-80
2022/06/05 11:45:52;;;;;;;1.35;0.65;;;26.30;79.80;;;25.16;47.28;100250.41;10468583;27;97192;-79
2022/06/05 11:51:22;;;;;;;1.52;0.77;;;26.40;77.50;;;25.36;49.21;100246.97;10449172;27;96687;-80
2022/06/05 11:57:01;;;;;;;0.50;0.47;;;26.50;79.10;;;25.69;49.54;100240.31;10453109;27;96983;-80
2022/06/05 12:02:54;;;;;;;0.93;0.68;;;26.80;79.80;;;26.05;48.98;100230.38;10463795;27;99053;-80
2022/06/05 12:08:06;;;;;;;1.08;0.63;;;27.10;79.00;;;26.04;46.51;100214.31;10335897;27;96772;-80
2022/06/05 12:13:54;;;;;;;1.85;0.50;;;27.30;75.40;;;25.97;45.67;100225.47;10449835;27;96612;-79
2022/06/05 12:19:26;;;;;;;1.55;0.88;;;27.20;73.20;;;26.02;46.87;100206.41;10501295;27;96765;-81
2022/06/05 12:24:47;;;;;;;0.82;0.57;;;27.30;73.70;;;26.35;47.38;100201.53;10522535;27;96697;-81
2022/06/05 12:30:14;;;;;;;1.08;0.70;;;27.50;75.50;;;26.35;47.71;100179.75;10513098;27;97409;-81
2022/06/05 12:35:35;;;;;;;1.40;0.70;;;27.60;74.00;;;26.32;46.33;100177.56;10492445;27;96601;-81
2022/06/05 12:40:44;;;;;;;1.45;0.63;;;27.60;72.50;;;26.23;46.75;100173.75;10524383;27;96679;-81
2022/06/05 12:45:52;;;;;;;1.65;1.15;;;27.50;72.60;;;26.16;46.44;100163.13;10537988;27;96627;-81
2022/06/05 12:51:19;;;;;;;1.53;1.10;;;27.50;72.10;;;25.97;48.34;100159.28;10523449;27;96553;-82
2022/06/05 12:56:43;;;;;;;1.65;0.80;;;27.30;73.40;;;25.94;49.73;100151.69;10501257;27;96900;-81
2022/06/05 13:02:05;;;;;;;1.88;0.90;;;27.20;74.30;;;26.17;47.66;100153.88;10502915;27;97562;-80
2022/06/05 13:07:21;;;;;;;1.50;1.00;;;27.40;73.50;;;26.41;48.61;100146.81;10494408;27;98535;-81
2022/06/05 13:13:01;;;;;;;1.35;0.93;;;27.50;74.20;;;26.89;48.59;100141.81;10523408;27;96555;-81
2022/06/05 13:18:22;;;;;;;3.58;1.13;;;27.90;74.80;;;27.24;46.98;100131.91;10514331;27;96725;-81
2022/06/05 13:24:06;;;;;;;1.38;0.77;;;28.30;72.90;;;27.29;45.66;100123.72;10527230;27;97460;-82
2022/06/05 13:29:58;;;;;;;1.48;0.90;;;28.50;71.40;;;26.93;44.52;100121.09;10506268;27;97003;-80
2022/06/05 13:35:27;;;;;;;1.08;0.60;;;28.30;69.90;;;26.89;45.20;100125.47;10522185;27;96797;-81
2022/06/05 13:41:00;;;;;;;1.10;0.70;;;28.20;70.20;;;27.01;46.07;100118.88;10541537;27;96620;-81
2022/06/05 13:46:31;;;;;;;1.08;0.65;;;28.20;70.50;;;27.04;44.09;100107.41;10543663;27;96608;-81
2022/06/05 13:51:45;;;;;;;0.85;0.60;;;28.30;68.80;;;27.00;43.77;100106.34;10529856;27;97684;-81
2022/06/05 13:57:14;;;;;;;2.03;1.08;;;28.20;68.10;;;27.07;44.11;100093.25;10529354;27;97157;-81
2022/06/05 14:02:31;;;;;;;1.10;0.77;;;28.40;67.60;;;27.38;43.81;100089.25;10509270;27;96738;-82
2022/06/05 14:08:03;;;;;;;0.95;0.60;;;28.60;67.50;;;27.35;42.35;100086.28;10538165;27;96620;-81
2022/06/05 14:13:12;;;;;;;0.70;0.57;;;28.70;66.00;;;27.38;42.02;100072.06;10543975;27;98347;-81
2022/06/05 14:18:50;;;;;;;0.57;0.50;;;28.70;64.50;;;27.51;42.45;100074.16;10530291;27;96755;-81
2022/06/05 14:23:55;;;;;;;0.68;0.60;;;28.80;65.10;;;27.25;42.89;100068.06;10546614;27;97617;-80
2022/06/05 14:28:58;;;;;;;1.40;0.88;;;28.60;64.50;;;27.08;41.88;100065.69;10518873;27;99715;-90
2022/06/05 14:34:04;;;;;;;1.13;0.70;;;28.50;63.70;;;27.10;43.94;100059.94;10515641;27;96528;-86
2022/06/05 14:39:34;;;;;;;1.40;0.90;;;28.40;65.40;;;27.23;43.41;100055.78;10508308;27;96665;-91
2022/06/05 14:44:51;;;;;;;1.00;0.70;;;28.50;65.30;;;27.36;43.08;100045.09;10521197;27;97363;-93
2022/06/05 14:50:01;;;;;;;0.93;0.75;;;28.50;65.20;;;27.39;43.11;100044.50;10511308;27;97635;-90
2022/06/05 15:01:35;;;;;;;1.95;0.98;;;28.40;63.60;;;27.00;43.10;100027.28;10518827;27;97274;-91
2022/06/05 15:06:55;;;;;;;0.85;0.60;;;28.20;64.40;;;27.13;42.49;100029.41;10544801;27;97353;-86
2022/06/05 15:12:18;;;;;;;2.45;1.08;;;28.30;64.10;;;27.13;42.10;100029.41;10531403;27;98253;-92
2022/06/05 15:17:38;;;;;;;1.20;0.80;;;28.30;63.80;;;27.10;41.93;100025.31;10519681;27;98170;-91
2022/06/05 15:23:31;;;;;;;1.20;0.73;;;28.30;63.20;;;27.22;43.36;100016.78;10533424;27;96627;-90
2022/06/05 15:29:14;;;;;;;1.25;1.00;;;28.30;64.20;;;27.32;41.07;100019.47;10521702;27;98820;-81
2022/06/05 15:34:40;;;;;;;1.30;1.08;;;28.50;62.50;;;27.27;41.58;100024.94;10532231;27;96817;-81
2022/06/05 15:40:18;;;;;;;1.55;0.82;;;28.50;62.40;;;27.16;41.42;100017.91;10535255;27;96591;-81
2022/06/05 15:45:28;;;;;;;0.88;0.68;;;28.40;61.80;;;27.18;43.08;100011.09;10543027;27;96744;-81
2022/06/05 15:51:03;;;;;;;1.15;0.75;;;28.40;62.90;;;27.26;41.65;100006.94;10513437;27;96589;-82
2022/06/05 15:56:35;;;;;;;1.08;0.80;;;28.50;62.10;;;27.38;41.95;100012.88;10509020;27;96637;-82
2022/06/05 16:01:47;;;;;;;1.55;0.82;;;28.50;62.40;;;27.45;41.60;100001.63;10536353;27;96749;-82
2022/06/05 16:06:52;;;;;;;1.30;0.80;;;28.60;62.20;;;27.47;41.93;99992.06;10498749;27;96615;-81
2022/06/05 16:12:06;;;;;;;1.10;0.90;;;28.60;61.90;;;27.29;41.44;99991.91;10542121;27;96415;-81
2022/06/05 16:17:38;;;;;;;1.60;0.80;;;28.50;61.00;;;27.17;42.04;99993.09;10537103;27;96974;-81
2022/06/05 16:23:02;;;;;;;1.52;1.00;;;28.40;60.90;;;27.13;41.16;99992.03;10541970;27;96535;-81
2022/06/05 16:28:20;;;;;;;1.40;1.05;;;28.40;60.80;;;27.10;41.20;99989.03;10531429;27;96955;-80
2022/06/05 16:33:30;;;;;;;1.52;1.02;;;28.30;60.30;;;26.98;40.61;99999.44;10535501;27;96769;-81
2022/06/05 16:38:54;;;;;;;1.67;1.02;;;28.20;60.10;;;26.92;41.14;100002.19;10541507;27;97709;-81
2022/06/05 16:44:03;;;;;;;1.20;1.00;;;28.10;60.60;;;26.85;41.45;99996.25;10517686;27;96587;-81
2022/06/05 16:49:09;;;;;;;1.03;0.80;;;28.10;61.00;;;26.76;41.70;99995.22;10516732;27;98506;-80
2022/06/05 16:54:29;;;;;;;1.52;1.00;;;28.00;60.90;;;26.56;42.58;99995.28;10539226;27;97236;-81
2022/06/05 16:59:58;;;;;;;0.77;0.60;;;27.80;61.30;;;26.52;42.61;99997.75;10520611;27;96874;-81
2022/06/05 17:05:13;;;;;;;0.98;0.73;;;27.70;61.70;;;26.42;42.25;100000.50;10528202;27;96701;-81
2022/06/05 17:10:31;;;;;;;1.80;0.90;;;27.60;61.70;;;26.12;42.95;100004.91;10540388;27;96458;-81
2022/06/05 17:15:43;;;;;;;1.20;0.63;;;27.40;61.70;;;25.85;43.86;100010.69;10474235;27;96719;-81
2022/06/05 17:21:09;;;;;;;1.30;0.90;;;27.20;62.40;;;25.60;44.86;100000.56;10494795;27;98827;-81
2022/06/05 17:26:45;;;;;;;1.95;1.00;;;26.90;62.90;;;25.37;45.37;100003.84;10487895;27;97875;-86
2022/06/05 17:32:27;;;;;;;1.33;0.90;;;26.70;63.60;;;25.15;45.45;100003.25;10498068;27;97658;-85
2022/06/05 17:38:02;;;;;;;1.08;0.80;;;26.50;64.00;;;24.97;45.76;99993.66;10497464;27;96528;-86
2022/06/05 17:43:28;;;;;;;1.33;1.10;;;26.30;64.30;;;24.81;47.20;99990.88;10467003;27;96667;-80
2022/06/05 17:48:46;;;;;;;1.45;0.95;;;26.10;65.00;;;24.65;47.09;99986.50;10487168;27;96762;-80
2022/06/05 17:53:51;;;;;;;1.60;1.00;;;26.00;65.60;;;24.49;48.49;99996.47;10496048;27;96778;-80
2022/06/05 17:58:54;;;;;;;2.15;0.95;;;25.80;67.20;;;24.34;51.48;99981.94;10496364;27;96945;-80
2022/06/05 18:03:59;;;;;;;1.67;1.00;;;25.60;69.30;;;24.13;50.47;99979.13;10487830;27;96666;-80
2022/06/05 18:09:21;;;;;;;2.75;2.08;;;25.40;68.80;;;23.93;49.36;99984.41;10494134;27;99255;-80
2022/06/05 18:14:50;;;;;;;1.55;1.02;;;25.20;67.90;;;23.77;50.83;99986.22;10530267;27;97032;-80
2022/06/05 18:19:54;;;;;;;;;;;25.00;69.30;;;23.60;52.23;99985.50;10513120;27;97159;-80
2022/06/05 18:24:58;;;;;;;2.47;1.00;;;24.80;71.20;;;23.36;53.14;99985.84;10513117;27;96504;-80
2022/06/05 18:30:34;;;;;;;2.25;1.58;;;24.60;72.70;;;23.10;54.59;99994.81;10527462;27;96639;-80
2022/06/05 18:41:05;;;;;;;1.50;1.20;;;24.10;74.60;;;22.61;55.50;99997.44;10531003;27;98373;-80
2022/06/05 18:46:17;;;;;;;1.70;1.00;;;23.80;75.20;;;22.38;56.19;100006.63;10522304;27;97468;-80
2022/06/05 18:51:39;;;;;;;3.05;1.60;;;23.60;76.40;;;22.14;57.49;100011.44;10518332;27;98120;-80
2022/06/05 18:57:03;;;;;;;2.17;1.30;;;23.30;78.20;;;21.90;58.38;100008.91;10521964;27;96560;-80
2022/06/05 19:02:20;;;;;;;1.30;0.98;;;23.00;79.00;;;21.70;59.97;100022.06;10521668;27;96835;-80
2022/06/05 19:07:28;;;;;;;2.00;1.25;;;22.80;81.40;;;21.49;60.34;100034.44;10530060;27;97144;-80
2022/06/05 19:12:53;;;;;;;2.97;1.50;;;22.60;82.30;;;21.30;60.70;100033.00;10528909;27;96702;-80
2022/06/05 19:18:11;;;;;;;2.03;1.08;;;22.40;83.20;;;21.11;61.82;100033.19;10519419;27;96716;-80
2022/06/05 19:23:25;;;;;;;2.80;1.73;;;22.20;84.70;;;20.94;62.14;100044.97;10542876;27;96543;-80
2022/06/05 19:28:51;;;;;;;3.28;2.13;;;22.00;85.40;;;20.77;62.38;100050.31;10515152;27;96956;-80
2022/06/05 19:34:06;;;;;;;2.13;1.58;;;21.90;85.90;;;20.66;62.38;100078.16;10527522;27;97590;-80
2022/06/05 19:39:25;;;;;;;2.15;1.35;;;21.80;86.10;;;20.57;62.41;100089.31;10537878;27;97678;-80
2022/06/05 19:44:35;;;;;;;3.03;1.67;;;21.70;86.30;;;20.41;62.29;100084.59;10534494;27;98004;-80
2022/06/05 19:49:51;;;;;;;3.10;1.65;;;21.50;86.80;;;20.30;63.16;100098.91;10519875;27;97626;-80
2022/06/05 19:54:58;;;;;;;2.72;1.45;;;21.40;87.60;;;20.19;63.74;100086.22;10519705;27;97518;-80
2022/06/05 20:00:11;;;;;;;3.35;2.25;;;21.30;89.60;;;20.09;64.76;100107.53;10523010;27;98033;-80
2022/06/05 20:05:33;;;;;;;3.65;2.13;;;21.20;90.40;;;19.99;65.12;100102.72;10517752;27;96592;-79
2022/06/05 20:11:02;;;;;;;1.75;1.40;;;21.10;90.70;;;19.87;65.74;100116.19;10514765;27;96672;-81
2022/06/05 20:16:29;;;;;;;3.10;1.80;;;21.00;91.70;;;19.83;66.36;100115.00;10473969;27;98317;-81
2022/06/05 20:21:33;;;;;;;1.83;1.27;;;20.90;92.10;;;19.76;66.27;100122.38;10468193;27;96607;-81
2022/06/05 20:26:45;;;;;;;2.92;1.98;;;20.90;92.40;;;19.75;67.02;100120.72;10469845;27;96697;-81
2022/06/05 20:32:00;;;;;;;2.05;1.15;;;20.80;93.30;;;19.77;66.62;100122.13;10490707;27;96952;-81
2022/06/05 20:37:18;;;;;;;1.70;1.25;;;20.90;93.30;;;19.80;66.30;100118.16;10476014;27;97810;-81
2022/06/05 20:42:30;;;;;;;1.63;0.95;;;20.90;93.20;;;19.86;66.09;100102.94;10478420;27;96688;-81
2022/06/05 20:48:05;;;;;;;3.35;1.50;;;20.90;93.30;;;19.89;65.69;100095.19;10480162;27;98215;-81
2022/06/05 20:53:23;;;;;;;2.05;1.05;;;21.00;93.20;;;19.89;65.78;100084.41;10498477;27;97445;-80
2022/06/05 20:58:47;;;;;;;3.83;1.20;;;21.00;93.60;;;19.87;65.95;100070.34;10486121;27;96547;-80
2022/06/05 21:09:47;;;;;;;2.70;1.50;;;21.00;93.80;;;19.75;65.71;100053.31;10487731;27;96497;-80
2022/06/05 21:20:16;;;;;;;2.00;1.42;;;20.80;94.60;;;19.52;66.44;100067.53;10523967;27;97489;-80
2022/06/05 21:25:46;;;;;;;2.47;1.38;;;20.70;94.60;;;19.43;66.90;100061.66;10491678;27;97227;-80
2022/06/05 21:30:54;;;;;;;2.83;1.50;;;20.60;95.20;;;19.34;67.25;100065.72;10507195;27;97315;-81
2022/06/05 21:36:08;;;;;;;1.65;1.25;;;20.50;95.70;;;19.21;67.90;100073.97;10522875;27;96467;-80
2022/06/05 21:41:38;;;;;;;1.95;0.93;;;20.40;96.60;;;19.08;68.19;100096.50;10527856;27;96455;-81
2022/06/05 21:46:43;;;;;;;2.03;1.40;;;20.20;96.50;;;18.96;67.82;100112.59;10530077;27;97721;-80
2022/06/05 21:51:50;;;;;;;1.67;1.38;;;20.10;96.30;;;18.92;67.87;100114.09;10527940;27;96543;-80
2022/06/05 21:56:54;;;;;;;3.13;1.65;;;20.10;96.70;;;18.89;67.60;100113.69;10525625;27;97023;-80
2022/06/05 22:01:58;;;;;;;2.10;1.17;;;20.00;96.40;;;18.89;66.57;100114.56;10533663;27;96870;-80
2022/06/05 22:07:03;;;;;;;1.95;1.15;;;20.00;96.00;;;18.92;65.21;100124.84;10542074;27;96963;-80
2022/06/05 22:12:07;;;;;;;2.28;1.02;;;20.10;95.10;;;18.97;64.29;100135.78;10529187;27;96510;-80
2022/06/05 22:17:09;;;;;;;1.25;0.90;;;20.10;94.60;;;19.03;62.77;100125.16;10512063;27;98785;-81
2022/06/05 22:22:15;;;;;;;1.13;0.80;;;20.20;94.00;;;19.08;62.65;100136.91;10491165;27;96599;-81
2022/06/05 22:27:22;;;;;;;1.65;0.90;;;20.20;93.00;;;19.09;62.20;100125.09;10539928;27;97460;-81